sensor_id;sensor_type;location;lat;lon;timestamp;P1;durP1;ratioP1;P2;durP2;ratioP2
65558;SDS011;52203;51.998;5.140;2023-08-20T00:01:05;10.90;;;5.55;;
65558;SDS011;52203;51.998;5.140;2023-08-20T00:03:34;11.95;;;5.38;;
65558;SDS011;52203;51.998;5.140;2023-08-20T00:06:00;12.13;;;5.28;;
65558;SDS011;52203;51.998;5.140;2023-08-20T00:08:29;11.07;;;5.72;;
65558;SDS011;52203;51.998;5.140;2023-08-20T00:10:54;12.20;;;5.30;;
65558;SDS011;52203;51.998;5.140;2023-08-20T00:13:20;11.65;;;5.47;;
65558;SDS011;52203;51.998;5.140;2023-08-20T00:15:45;11.40;;;5.63;;
65558;SDS011;52203;51.998;5.140;2023-08-20T00:18:11;12.30;;;4.90;;
65558;SDS011;52203;51.998;5.140;2023-08-20T00:20:37;13.75;;;5.28;;
65558;SDS011;52203;51.998;5.140;2023-08-20T00:23:03;10.10;;;4.65;;
65558;SDS011;52203;51.998;5.140;2023-08-20T00:25:29;12.63;;;5.53;;
65558;SDS011;52203;51.998;5.140;2023-08-20T00:27:55;12.48;;;5.22;;
65558;SDS011;52203;51.998;5.140;2023-08-20T00:30:21;11.73;;;5.60;;
65558;SDS011;52203;51.998;5.140;2023-08-20T00:32:47;14.27;;;5.65;;
65558;SDS011;52203;51.998;5.140;2023-08-20T00:35:13;9.35;;;5.00;;
65558;SDS011;52203;51.998;5.140;2023-08-20T00:37:39;15.00;;;5.47;;
65558;SDS011;52203;51.998;5.140;2023-08-20T00:40:05;13.40;;;5.82;;
65558;SDS011;52203;51.998;5.140;2023-08-20T00:42:31;12.40;;;5.43;;
65558;SDS011;52203;51.998;5.140;2023-08-20T00:44:57;10.02;;;4.82;;
65558;SDS011;52203;51.998;5.140;2023-08-20T00:47:22;12.20;;;4.95;;
65558;SDS011;52203;51.998;5.140;2023-08-20T00:49:48;10.93;;;4.95;;
65558;SDS011;52203;51.998;5.140;2023-08-20T00:52:15;11.30;;;4.75;;
65558;SDS011;52203;51.998;5.140;2023-08-20T00:54:41;10.38;;;4.47;;
65558;SDS011;52203;51.998;5.140;2023-08-20T00:57:15;10.65;;;3.60;;
65558;SDS011;52203;51.998;5.140;2023-08-20T00:59:43;8.35;;;3.75;;
65558;SDS011;52203;51.998;5.140;2023-08-20T01:02:12;11.55;;;4.20;;
65558;SDS011;52203;51.998;5.140;2023-08-20T01:04:37;12.48;;;4.88;;
65558;SDS011;52203;51.998;5.140;2023-08-20T01:12:38;10.90;;;3.60;;
65558;SDS011;52203;51.998;5.140;2023-08-20T01:15:04;7.78;;;3.30;;
65558;SDS011;52203;51.998;5.140;2023-08-20T01:17:30;8.15;;;3.45;;
65558;SDS011;52203;51.998;5.140;2023-08-20T01:19:56;10.02;;;3.40;;
65558;SDS011;52203;51.998;5.140;2023-08-20T01:30:31;8.77;;;2.80;;
65558;SDS011;52203;51.998;5.140;2023-08-20T01:32:56;9.50;;;3.90;;
65558;SDS011;52203;51.998;5.140;2023-08-20T01:35:24;8.70;;;3.55;;
65558;SDS011;52203;51.998;5.140;2023-08-20T01:37:52;9.15;;;3.53;;
65558;SDS011;52203;51.998;5.140;2023-08-20T01:40:18;8.73;;;3.88;;
65558;SDS011;52203;51.998;5.140;2023-08-20T01:42:44;10.63;;;3.97;;
65558;SDS011;52203;51.998;5.140;2023-08-20T01:45:09;8.07;;;3.65;;
65558;SDS011;52203;51.998;5.140;2023-08-20T01:47:35;6.55;;;3.80;;
65558;SDS011;52203;51.998;5.140;2023-08-20T01:50:01;12.40;;;3.88;;
65558;SDS011;52203;51.998;5.140;2023-08-20T01:52:27;14.05;;;4.20;;
65558;SDS011;52203;51.998;5.140;2023-08-20T01:54:54;7.50;;;3.03;;
65558;SDS011;52203;51.998;5.140;2023-08-20T01:57:20;9.93;;;3.22;;
65558;SDS011;52203;51.998;5.140;2023-08-20T01:59:46;8.52;;;2.85;;
65558;SDS011;52203;51.998;5.140;2023-08-20T02:02:12;8.43;;;3.60;;
65558;SDS011;52203;51.998;5.140;2023-08-20T02:04:38;7.78;;;3.38;;
65558;SDS011;52203;51.998;5.140;2023-08-20T02:07:04;8.30;;;2.80;;
65558;SDS011;52203;51.998;5.140;2023-08-20T02:09:29;11.23;;;3.13;;
65558;SDS011;52203;51.998;5.140;2023-08-20T02:11:55;6.72;;;2.78;;
65558;SDS011;52203;51.998;5.140;2023-08-20T02:14:20;7.75;;;2.83;;
65558;SDS011;52203;51.998;5.140;2023-08-20T02:16:46;8.80;;;3.15;;
65558;SDS011;52203;51.998;5.140;2023-08-20T02:19:13;4.95;;;2.60;;
65558;SDS011;52203;51.998;5.140;2023-08-20T02:21:39;9.05;;;3.05;;
65558;SDS011;52203;51.998;5.140;2023-08-20T02:24:05;8.55;;;3.60;;
65558;SDS011;52203;51.998;5.140;2023-08-20T02:26:31;11.65;;;3.72;;
65558;SDS011;52203;51.998;5.140;2023-08-20T02:28:56;8.48;;;3.30;;
65558;SDS011;52203;51.998;5.140;2023-08-20T02:31:22;9.30;;;3.45;;
65558;SDS011;52203;51.998;5.140;2023-08-20T02:33:47;9.52;;;3.58;;
65558;SDS011;52203;51.998;5.140;2023-08-20T02:36:13;8.52;;;3.08;;
65558;SDS011;52203;51.998;5.140;2023-08-20T02:38:39;9.32;;;3.30;;
65558;SDS011;52203;51.998;5.140;2023-08-20T02:41:04;8.18;;;3.47;;
65558;SDS011;52203;51.998;5.140;2023-08-20T02:43:30;8.13;;;3.50;;
65558;SDS011;52203;51.998;5.140;2023-08-20T02:45:55;8.23;;;3.28;;
65558;SDS011;52203;51.998;5.140;2023-08-20T02:48:21;8.00;;;3.38;;
65558;SDS011;52203;51.998;5.140;2023-08-20T02:50:51;8.90;;;3.40;;
65558;SDS011;52203;51.998;5.140;2023-08-20T02:53:18;8.38;;;3.20;;
65558;SDS011;52203;51.998;5.140;2023-08-20T02:55:43;7.40;;;2.97;;
65558;SDS011;52203;51.998;5.140;2023-08-20T02:58:09;8.15;;;3.10;;
65558;SDS011;52203;51.998;5.140;2023-08-20T03:00:35;9.23;;;3.45;;
65558;SDS011;52203;51.998;5.140;2023-08-20T03:03:01;7.63;;;3.03;;
65558;SDS011;52203;51.998;5.140;2023-08-20T03:05:30;8.35;;;3.65;;
65558;SDS011;52203;51.998;5.140;2023-08-20T03:07:56;11.88;;;4.10;;
65558;SDS011;52203;51.998;5.140;2023-08-20T03:10:22;8.35;;;4.10;;
65558;SDS011;52203;51.998;5.140;2023-08-20T03:12:47;10.23;;;3.85;;
65558;SDS011;52203;51.998;5.140;2023-08-20T03:15:13;8.52;;;4.15;;
65558;SDS011;52203;51.998;5.140;2023-08-20T03:17:38;10.55;;;3.60;;
65558;SDS011;52203;51.998;5.140;2023-08-20T03:20:04;9.15;;;3.60;;
65558;SDS011;52203;51.998;5.140;2023-08-20T03:22:31;8.23;;;3.67;;
65558;SDS011;52203;51.998;5.140;2023-08-20T03:24:57;7.90;;;3.65;;
65558;SDS011;52203;51.998;5.140;2023-08-20T03:27:23;9.02;;;3.75;;
65558;SDS011;52203;51.998;5.140;2023-08-20T03:29:48;9.27;;;3.65;;
65558;SDS011;52203;51.998;5.140;2023-08-20T03:32:14;10.13;;;3.80;;
65558;SDS011;52203;51.998;5.140;2023-08-20T03:34:39;6.95;;;3.65;;
65558;SDS011;52203;51.998;5.140;2023-08-20T03:37:05;8.20;;;3.85;;
65558;SDS011;52203;51.998;5.140;2023-08-20T03:39:30;8.40;;;4.13;;
65558;SDS011;52203;51.998;5.140;2023-08-20T03:41:56;9.15;;;3.63;;
65558;SDS011;52203;51.998;5.140;2023-08-20T03:44:22;7.32;;;3.70;;
65558;SDS011;52203;51.998;5.140;2023-08-20T03:46:48;10.55;;;3.95;;
65558;SDS011;52203;51.998;5.140;2023-08-20T03:49:14;10.10;;;3.80;;
65558;SDS011;52203;51.998;5.140;2023-08-20T03:51:39;9.52;;;3.65;;
65558;SDS011;52203;51.998;5.140;2023-08-20T03:54:06;11.57;;;3.67;;
65558;SDS011;52203;51.998;5.140;2023-08-20T03:56:31;11.65;;;3.55;;
65558;SDS011;52203;51.998;5.140;2023-08-20T03:58:57;8.10;;;3.35;;
65558;SDS011;52203;51.998;5.140;2023-08-20T04:01:22;9.48;;;3.88;;
65558;SDS011;52203;51.998;5.140;2023-08-20T04:03:48;7.72;;;3.17;;
65558;SDS011;52203;51.998;5.140;2023-08-20T04:06:14;8.85;;;3.45;;
65558;SDS011;52203;51.998;5.140;2023-08-20T04:08:40;8.40;;;3.38;;
65558;SDS011;52203;51.998;5.140;2023-08-20T04:11:06;8.88;;;3.45;;
65558;SDS011;52203;51.998;5.140;2023-08-20T04:13:32;6.90;;;3.10;;
65558;SDS011;52203;51.998;5.140;2023-08-20T04:15:57;7.40;;;3.72;;
65558;SDS011;52203;51.998;5.140;2023-08-20T04:18:23;5.97;;;2.75;;
65558;SDS011;52203;51.998;5.140;2023-08-20T04:20:52;8.82;;;3.13;;
65558;SDS011;52203;51.998;5.140;2023-08-20T04:23:18;8.05;;;3.03;;
65558;SDS011;52203;51.998;5.140;2023-08-20T04:25:44;9.63;;;3.28;;
65558;SDS011;52203;51.998;5.140;2023-08-20T04:28:11;9.88;;;3.22;;
65558;SDS011;52203;51.998;5.140;2023-08-20T04:30:37;6.30;;;2.75;;
65558;SDS011;52203;51.998;5.140;2023-08-20T04:33:03;6.90;;;3.22;;
65558;SDS011;52203;51.998;5.140;2023-08-20T04:35:29;8.57;;;3.17;;
65558;SDS011;52203;51.998;5.140;2023-08-20T04:37:54;6.43;;;2.92;;
65558;SDS011;52203;51.998;5.140;2023-08-20T04:40:20;9.75;;;3.10;;
65558;SDS011;52203;51.998;5.140;2023-08-20T04:42:45;7.43;;;2.83;;
65558;SDS011;52203;51.998;5.140;2023-08-20T04:45:11;6.50;;;3.15;;
65558;SDS011;52203;51.998;5.140;2023-08-20T04:47:37;6.55;;;2.55;;
65558;SDS011;52203;51.998;5.140;2023-08-20T04:50:03;6.35;;;2.88;;
65558;SDS011;52203;51.998;5.140;2023-08-20T04:52:32;5.82;;;2.45;;
65558;SDS011;52203;51.998;5.140;2023-08-20T04:54:58;5.40;;;2.70;;
65558;SDS011;52203;51.998;5.140;2023-08-20T04:57:23;6.50;;;2.42;;
65558;SDS011;52203;51.998;5.140;2023-08-20T04:59:49;4.90;;;2.40;;
65558;SDS011;52203;51.998;5.140;2023-08-20T05:02:14;8.20;;;2.85;;
65558;SDS011;52203;51.998;5.140;2023-08-20T05:04:40;6.57;;;2.90;;
65558;SDS011;52203;51.998;5.140;2023-08-20T05:07:06;6.28;;;2.72;;
65558;SDS011;52203;51.998;5.140;2023-08-20T05:09:32;6.47;;;2.95;;
65558;SDS011;52203;51.998;5.140;2023-08-20T05:11:58;5.65;;;3.00;;
65558;SDS011;52203;51.998;5.140;2023-08-20T05:14:23;5.68;;;2.58;;
65558;SDS011;52203;51.998;5.140;2023-08-20T05:16:49;6.78;;;2.85;;
65558;SDS011;52203;51.998;5.140;2023-08-20T05:19:15;5.90;;;2.95;;
65558;SDS011;52203;51.998;5.140;2023-08-20T05:21:40;5.10;;;2.78;;
65558;SDS011;52203;51.998;5.140;2023-08-20T05:24:06;6.30;;;3.00;;
65558;SDS011;52203;51.998;5.140;2023-08-20T05:26:32;5.88;;;3.10;;
65558;SDS011;52203;51.998;5.140;2023-08-20T05:28:57;5.63;;;3.10;;
65558;SDS011;52203;51.998;5.140;2023-08-20T05:31:23;4.75;;;2.92;;
65558;SDS011;52203;51.998;5.140;2023-08-20T05:33:48;7.32;;;3.03;;
65558;SDS011;52203;51.998;5.140;2023-08-20T05:36:14;7.07;;;3.20;;
65558;SDS011;52203;51.998;5.140;2023-08-20T05:38:39;8.85;;;3.28;;
65558;SDS011;52203;51.998;5.140;2023-08-20T05:41:07;10.07;;;3.38;;
65558;SDS011;52203;51.998;5.140;2023-08-20T05:43:33;8.57;;;3.20;;
65558;SDS011;52203;51.998;5.140;2023-08-20T05:45:59;8.23;;;3.63;;
65558;SDS011;52203;51.998;5.140;2023-08-20T05:48:24;11.68;;;3.78;;
65558;SDS011;52203;51.998;5.140;2023-08-20T05:50:50;9.20;;;3.65;;
65558;SDS011;52203;51.998;5.140;2023-08-20T05:53:15;10.15;;;3.90;;
65558;SDS011;52203;51.998;5.140;2023-08-20T05:55:41;11.18;;;3.95;;
65558;SDS011;52203;51.998;5.140;2023-08-20T05:58:06;11.32;;;3.92;;
65558;SDS011;52203;51.998;5.140;2023-08-20T06:00:32;11.93;;;3.78;;
65558;SDS011;52203;51.998;5.140;2023-08-20T06:02:57;11.77;;;4.28;;
65558;SDS011;52203;51.998;5.140;2023-08-20T06:05:23;10.57;;;3.70;;
65558;SDS011;52203;51.998;5.140;2023-08-20T06:07:49;8.38;;;3.33;;
65558;SDS011;52203;51.998;5.140;2023-08-20T06:10:15;12.02;;;3.65;;
65558;SDS011;52203;51.998;5.140;2023-08-20T06:12:40;7.95;;;3.15;;
65558;SDS011;52203;51.998;5.140;2023-08-20T06:15:06;8.82;;;3.33;;
65558;SDS011;52203;51.998;5.140;2023-08-20T06:17:32;7.68;;;3.10;;
65558;SDS011;52203;51.998;5.140;2023-08-20T06:19:58;7.55;;;3.45;;
65558;SDS011;52203;51.998;5.140;2023-08-20T06:22:24;6.03;;;2.90;;
65558;SDS011;52203;51.998;5.140;2023-08-20T06:24:50;6.40;;;2.90;;
65558;SDS011;52203;51.998;5.140;2023-08-20T06:27:15;6.53;;;2.70;;
65558;SDS011;52203;51.998;5.140;2023-08-20T06:29:41;7.18;;;2.85;;
65558;SDS011;52203;51.998;5.140;2023-08-20T06:32:06;7.88;;;2.72;;
65558;SDS011;52203;51.998;5.140;2023-08-20T06:34:33;7.45;;;3.10;;
65558;SDS011;52203;51.998;5.140;2023-08-20T06:36:59;6.80;;;2.58;;
65558;SDS011;52203;51.998;5.140;2023-08-20T06:39:25;8.13;;;2.90;;
65558;SDS011;52203;51.998;5.140;2023-08-20T06:41:50;8.25;;;2.70;;
65558;SDS011;52203;51.998;5.140;2023-08-20T06:44:16;10.57;;;3.10;;
65558;SDS011;52203;51.998;5.140;2023-08-20T06:46:41;7.20;;;2.65;;
65558;SDS011;52203;51.998;5.140;2023-08-20T06:49:07;7.65;;;2.70;;
65558;SDS011;52203;51.998;5.140;2023-08-20T06:51:32;7.03;;;2.65;;
65558;SDS011;52203;51.998;5.140;2023-08-20T06:53:58;8.75;;;2.20;;
65558;SDS011;52203;51.998;5.140;2023-08-20T06:56:23;7.55;;;2.30;;
65558;SDS011;52203;51.998;5.140;2023-08-20T06:58:49;6.97;;;2.22;;
65558;SDS011;52203;51.998;5.140;2023-08-20T07:01:14;6.68;;;2.70;;
65558;SDS011;52203;51.998;5.140;2023-08-20T07:03:40;8.32;;;2.72;;
65558;SDS011;52203;51.998;5.140;2023-08-20T07:06:07;9.07;;;2.47;;
65558;SDS011;52203;51.998;5.140;2023-08-20T07:08:37;6.93;;;2.47;;
65558;SDS011;52203;51.998;5.140;2023-08-20T07:11:04;8.30;;;2.63;;
65558;SDS011;52203;51.998;5.140;2023-08-20T07:13:30;7.30;;;2.30;;
65558;SDS011;52203;51.998;5.140;2023-08-20T07:15:55;7.75;;;2.55;;
65558;SDS011;52203;51.998;5.140;2023-08-20T07:18:21;8.65;;;2.85;;
65558;SDS011;52203;51.998;5.140;2023-08-20T07:20:47;5.45;;;2.28;;
65558;SDS011;52203;51.998;5.140;2023-08-20T07:23:13;6.90;;;2.15;;
65558;SDS011;52203;51.998;5.140;2023-08-20T07:25:39;6.85;;;2.50;;
65558;SDS011;52203;51.998;5.140;2023-08-20T07:28:06;6.68;;;2.20;;
65558;SDS011;52203;51.998;5.140;2023-08-20T07:30:33;6.50;;;2.17;;
65558;SDS011;52203;51.998;5.140;2023-08-20T07:32:59;7.35;;;2.13;;
65558;SDS011;52203;51.998;5.140;2023-08-20T07:35:24;7.70;;;2.42;;
65558;SDS011;52203;51.998;5.140;2023-08-20T07:37:50;6.97;;;2.00;;
65558;SDS011;52203;51.998;5.140;2023-08-20T07:40:16;10.48;;;2.15;;
65558;SDS011;52203;51.998;5.140;2023-08-20T07:42:41;8.07;;;2.17;;
65558;SDS011;52203;51.998;5.140;2023-08-20T07:45:07;12.25;;;2.58;;
65558;SDS011;52203;51.998;5.140;2023-08-20T07:47:35;6.57;;;1.90;;
65558;SDS011;52203;51.998;5.140;2023-08-20T07:50:01;6.15;;;2.13;;
65558;SDS011;52203;51.998;5.140;2023-08-20T07:52:27;8.43;;;2.25;;
65558;SDS011;52203;51.998;5.140;2023-08-20T07:54:53;6.07;;;1.70;;
65558;SDS011;52203;51.998;5.140;2023-08-20T07:57:18;6.35;;;2.13;;
65558;SDS011;52203;51.998;5.140;2023-08-20T07:59:44;7.15;;;1.92;;
65558;SDS011;52203;51.998;5.140;2023-08-20T08:02:09;6.68;;;1.88;;
65558;SDS011;52203;51.998;5.140;2023-08-20T08:04:35;6.95;;;1.75;;
65558;SDS011;52203;51.998;5.140;2023-08-20T08:07:01;8.70;;;1.75;;
65558;SDS011;52203;51.998;5.140;2023-08-20T08:09:27;5.68;;;1.63;;
65558;SDS011;52203;51.998;5.140;2023-08-20T08:11:53;11.50;;;2.10;;
65558;SDS011;52203;51.998;5.140;2023-08-20T08:14:19;5.00;;;1.60;;
65558;SDS011;52203;51.998;5.140;2023-08-20T08:16:45;9.43;;;2.38;;
65558;SDS011;52203;51.998;5.140;2023-08-20T08:19:11;8.32;;;1.75;;
65558;SDS011;52203;51.998;5.140;2023-08-20T08:21:37;9.68;;;2.00;;
65558;SDS011;52203;51.998;5.140;2023-08-20T08:24:03;6.53;;;1.73;;
65558;SDS011;52203;51.998;5.140;2023-08-20T08:26:30;8.80;;;2.08;;
65558;SDS011;52203;51.998;5.140;2023-08-20T08:28:55;7.93;;;1.88;;
65558;SDS011;52203;51.998;5.140;2023-08-20T08:31:21;4.82;;;1.67;;
65558;SDS011;52203;51.998;5.140;2023-08-20T08:33:47;6.43;;;1.60;;
65558;SDS011;52203;51.998;5.140;2023-08-20T08:36:12;5.90;;;1.63;;
65558;SDS011;52203;51.998;5.140;2023-08-20T08:38:40;4.32;;;1.30;;
65558;SDS011;52203;51.998;5.140;2023-08-20T08:41:06;6.05;;;1.88;;
65558;SDS011;52203;51.998;5.140;2023-08-20T08:43:36;4.57;;;1.20;;
65558;SDS011;52203;51.998;5.140;2023-08-20T08:46:03;5.88;;;1.90;;
65558;SDS011;52203;51.998;5.140;2023-08-20T08:48:37;7.30;;;1.75;;
65558;SDS011;52203;51.998;5.140;2023-08-20T08:51:05;6.07;;;1.80;;
65558;SDS011;52203;51.998;5.140;2023-08-20T08:53:31;5.03;;;1.40;;
65558;SDS011;52203;51.998;5.140;2023-08-20T08:55:57;6.72;;;1.60;;
65558;SDS011;52203;51.998;5.140;2023-08-20T08:58:24;7.15;;;2.08;;
65558;SDS011;52203;51.998;5.140;2023-08-20T09:00:50;4.28;;;1.60;;
65558;SDS011;52203;51.998;5.140;2023-08-20T09:03:15;6.40;;;1.58;;
65558;SDS011;52203;51.998;5.140;2023-08-20T09:05:54;5.75;;;1.40;;
65558;SDS011;52203;51.998;5.140;2023-08-20T09:08:31;5.50;;;1.50;;
65558;SDS011;52203;51.998;5.140;2023-08-20T09:10:57;6.75;;;1.58;;
65558;SDS011;52203;51.998;5.140;2023-08-20T09:13:34;7.05;;;1.88;;
65558;SDS011;52203;51.998;5.140;2023-08-20T09:16:03;6.38;;;1.48;;
65558;SDS011;52203;51.998;5.140;2023-08-20T09:18:30;5.18;;;1.42;;
65558;SDS011;52203;51.998;5.140;2023-08-20T09:20:56;5.07;;;1.50;;
65558;SDS011;52203;51.998;5.140;2023-08-20T09:23:22;6.57;;;1.40;;
65558;SDS011;52203;51.998;5.140;2023-08-20T09:25:48;4.72;;;1.15;;
65558;SDS011;52203;51.998;5.140;2023-08-20T09:28:14;5.13;;;1.30;;
65558;SDS011;52203;51.998;5.140;2023-08-20T09:30:40;3.80;;;0.98;;
65558;SDS011;52203;51.998;5.140;2023-08-20T09:33:11;7.70;;;1.42;;
65558;SDS011;52203;51.998;5.140;2023-08-20T09:35:42;5.60;;;0.98;;
65558;SDS011;52203;51.998;5.140;2023-08-20T09:38:14;5.25;;;1.10;;
65558;SDS011;52203;51.998;5.140;2023-08-20T09:40:39;4.60;;;1.00;;
65558;SDS011;52203;51.998;5.140;2023-08-20T09:43:05;4.20;;;0.95;;
65558;SDS011;52203;51.998;5.140;2023-08-20T09:45:33;4.57;;;1.33;;
65558;SDS011;52203;51.998;5.140;2023-08-20T09:48:01;4.65;;;0.88;;
65558;SDS011;52203;51.998;5.140;2023-08-20T09:50:29;4.00;;;0.95;;
65558;SDS011;52203;51.998;5.140;2023-08-20T09:53:06;3.28;;;1.33;;
65558;SDS011;52203;51.998;5.140;2023-08-20T09:55:40;4.88;;;1.20;;
65558;SDS011;52203;51.998;5.140;2023-08-20T09:58:07;5.00;;;1.20;;
65558;SDS011;52203;51.998;5.140;2023-08-20T10:00:33;3.50;;;0.98;;
65558;SDS011;52203;51.998;5.140;2023-08-20T10:03:00;2.83;;;0.90;;
65558;SDS011;52203;51.998;5.140;2023-08-20T10:05:27;6.00;;;1.30;;
65558;SDS011;52203;51.998;5.140;2023-08-20T10:07:54;8.73;;;1.30;;
65558;SDS011;52203;51.998;5.140;2023-08-20T10:10:20;3.53;;;1.40;;
65558;SDS011;52203;51.998;5.140;2023-08-20T10:12:46;4.43;;;1.20;;
65558;SDS011;52203;51.998;5.140;2023-08-20T10:15:13;4.00;;;1.00;;
65558;SDS011;52203;51.998;5.140;2023-08-20T10:17:41;6.05;;;1.00;;
65558;SDS011;52203;51.998;5.140;2023-08-20T10:20:07;3.42;;;0.95;;
65558;SDS011;52203;51.998;5.140;2023-08-20T10:22:39;4.53;;;1.17;;
65558;SDS011;52203;51.998;5.140;2023-08-20T10:25:06;2.03;;;0.80;;
65558;SDS011;52203;51.998;5.140;2023-08-20T10:27:34;4.72;;;1.27;;
65558;SDS011;52203;51.998;5.140;2023-08-20T10:30:00;1.73;;;0.85;;
65558;SDS011;52203;51.998;5.140;2023-08-20T10:35:14;4.82;;;1.00;;
65558;SDS011;52203;51.998;5.140;2023-08-20T10:38:00;4.72;;;1.02;;
65558;SDS011;52203;51.998;5.140;2023-08-20T10:46:25;4.18;;;1.08;;
65558;SDS011;52203;51.998;5.140;2023-08-20T10:48:51;3.10;;;1.00;;
65558;SDS011;52203;51.998;5.140;2023-08-20T10:56:42;4.53;;;0.88;;
65558;SDS011;52203;51.998;5.140;2023-08-20T11:02:01;3.63;;;0.90;;
65558;SDS011;52203;51.998;5.140;2023-08-20T11:04:28;4.95;;;1.05;;
65558;SDS011;52203;51.998;5.140;2023-08-20T11:06:59;3.67;;;1.15;;
65558;SDS011;52203;51.998;5.140;2023-08-20T11:09:29;3.58;;;0.90;;
65558;SDS011;52203;51.998;5.140;2023-08-20T11:11:56;3.75;;;1.20;;
65558;SDS011;52203;51.998;5.140;2023-08-20T11:14:22;2.50;;;0.80;;
65558;SDS011;52203;51.998;5.140;2023-08-20T11:16:48;3.83;;;1.00;;
65558;SDS011;52203;51.998;5.140;2023-08-20T11:19:15;4.05;;;0.90;;
65558;SDS011;52203;51.998;5.140;2023-08-20T11:21:44;4.97;;;0.90;;
65558;SDS011;52203;51.998;5.140;2023-08-20T11:24:11;4.03;;;0.98;;
65558;SDS011;52203;51.998;5.140;2023-08-20T11:26:40;5.10;;;1.08;;
65558;SDS011;52203;51.998;5.140;2023-08-20T11:29:10;3.42;;;1.00;;
65558;SDS011;52203;51.998;5.140;2023-08-20T11:31:37;2.97;;;1.00;;
65558;SDS011;52203;51.998;5.140;2023-08-20T11:34:04;3.03;;;1.20;;
65558;SDS011;52203;51.998;5.140;2023-08-20T11:36:31;4.90;;;1.08;;
65558;SDS011;52203;51.998;5.140;2023-08-20T11:38:56;3.63;;;0.90;;
65558;SDS011;52203;51.998;5.140;2023-08-20T11:41:22;3.95;;;1.15;;
65558;SDS011;52203;51.998;5.140;2023-08-20T11:43:49;4.03;;;1.10;;
65558;SDS011;52203;51.998;5.140;2023-08-20T11:46:17;5.10;;;1.23;;
65558;SDS011;52203;51.998;5.140;2023-08-20T11:48:58;3.15;;;0.90;;
65558;SDS011;52203;51.998;5.140;2023-08-20T11:51:41;3.70;;;0.90;;
65558;SDS011;52203;51.998;5.140;2023-08-20T11:54:09;4.93;;;1.05;;
65558;SDS011;52203;51.998;5.140;2023-08-20T11:56:43;3.28;;;1.05;;
65558;SDS011;52203;51.998;5.140;2023-08-20T11:59:11;2.67;;;1.20;;
65558;SDS011;52203;51.998;5.140;2023-08-20T12:01:37;4.30;;;1.20;;
65558;SDS011;52203;51.998;5.140;2023-08-20T12:04:03;5.88;;;1.10;;
65558;SDS011;52203;51.998;5.140;2023-08-20T12:06:30;3.65;;;1.10;;
65558;SDS011;52203;51.998;5.140;2023-08-20T12:08:59;3.75;;;0.90;;
65558;SDS011;52203;51.998;5.140;2023-08-20T12:11:25;6.65;;;1.10;;
65558;SDS011;52203;51.998;5.140;2023-08-20T12:13:51;4.38;;;1.10;;
65558;SDS011;52203;51.998;5.140;2023-08-20T12:16:17;3.45;;;0.95;;
65558;SDS011;52203;51.998;5.140;2023-08-20T12:18:45;4.78;;;1.45;;
65558;SDS011;52203;51.998;5.140;2023-08-20T12:21:11;4.07;;;1.00;;
65558;SDS011;52203;51.998;5.140;2023-08-20T12:23:36;2.75;;;0.80;;
65558;SDS011;52203;51.998;5.140;2023-08-20T12:26:02;5.10;;;1.00;;
65558;SDS011;52203;51.998;5.140;2023-08-20T12:28:28;3.20;;;1.00;;
65558;SDS011;52203;51.998;5.140;2023-08-20T12:30:53;3.05;;;0.90;;
65558;SDS011;52203;51.998;5.140;2023-08-20T12:33:19;3.70;;;1.10;;
65558;SDS011;52203;51.998;5.140;2023-08-20T12:35:46;4.10;;;1.05;;
65558;SDS011;52203;51.998;5.140;2023-08-20T12:38:11;5.43;;;1.15;;
65558;SDS011;52203;51.998;5.140;2023-08-20T12:40:37;4.07;;;1.08;;
65558;SDS011;52203;51.998;5.140;2023-08-20T12:43:03;4.28;;;1.10;;
65558;SDS011;52203;51.998;5.140;2023-08-20T12:45:29;2.40;;;1.20;;
65558;SDS011;52203;51.998;5.140;2023-08-20T12:47:55;5.13;;;1.20;;
65558;SDS011;52203;51.998;5.140;2023-08-20T12:50:21;4.15;;;1.20;;
65558;SDS011;52203;51.998;5.140;2023-08-20T12:52:46;5.10;;;1.15;;
65558;SDS011;52203;51.998;5.140;2023-08-20T12:55:14;4.68;;;1.27;;
65558;SDS011;52203;51.998;5.140;2023-08-20T12:57:52;4.15;;;1.10;;
65558;SDS011;52203;51.998;5.140;2023-08-20T13:00:21;2.97;;;1.30;;
65558;SDS011;52203;51.998;5.140;2023-08-20T13:02:47;5.25;;;1.23;;
65558;SDS011;52203;51.998;5.140;2023-08-20T13:05:13;7.80;;;1.60;;
65558;SDS011;52203;51.998;5.140;2023-08-20T13:07:39;4.95;;;1.58;;
65558;SDS011;52203;51.998;5.140;2023-08-20T13:10:05;6.88;;;1.60;;
65558;SDS011;52203;51.998;5.140;2023-08-20T13:12:33;2.95;;;1.10;;
65558;SDS011;52203;51.998;5.140;2023-08-20T13:14:59;4.68;;;1.10;;
65558;SDS011;52203;51.998;5.140;2023-08-20T13:17:25;4.47;;;1.40;;
65558;SDS011;52203;51.998;5.140;2023-08-20T13:19:51;4.50;;;1.65;;
65558;SDS011;52203;51.998;5.140;2023-08-20T13:22:17;4.32;;;1.20;;
65558;SDS011;52203;51.998;5.140;2023-08-20T13:24:42;5.18;;;1.40;;
65558;SDS011;52203;51.998;5.140;2023-08-20T13:27:08;3.22;;;1.42;;
65558;SDS011;52203;51.998;5.140;2023-08-20T13:29:34;5.85;;;1.50;;
65558;SDS011;52203;51.998;5.140;2023-08-20T13:31:59;5.28;;;1.33;;
65558;SDS011;52203;51.998;5.140;2023-08-20T13:34:25;7.07;;;1.65;;
65558;SDS011;52203;51.998;5.140;2023-08-20T13:36:51;7.00;;;1.50;;
65558;SDS011;52203;51.998;5.140;2023-08-20T13:39:16;7.00;;;1.83;;
65558;SDS011;52203;51.998;5.140;2023-08-20T13:41:43;4.47;;;1.50;;
65558;SDS011;52203;51.998;5.140;2023-08-20T13:44:09;4.68;;;1.30;;
65558;SDS011;52203;51.998;5.140;2023-08-20T13:46:35;5.25;;;1.63;;
65558;SDS011;52203;51.998;5.140;2023-08-20T13:49:01;5.18;;;1.65;;
65558;SDS011;52203;51.998;5.140;2023-08-20T13:51:28;3.88;;;1.23;;
65558;SDS011;52203;51.998;5.140;2023-08-20T13:53:54;4.63;;;1.23;;
65558;SDS011;52203;51.998;5.140;2023-08-20T13:56:19;5.80;;;1.63;;
65558;SDS011;52203;51.998;5.140;2023-08-20T13:58:45;3.17;;;1.25;;
65558;SDS011;52203;51.998;5.140;2023-08-20T14:01:11;6.55;;;1.73;;
65558;SDS011;52203;51.998;5.140;2023-08-20T14:03:38;3.88;;;1.48;;
65558;SDS011;52203;51.998;5.140;2023-08-20T14:06:04;6.20;;;1.50;;
65558;SDS011;52203;51.998;5.140;2023-08-20T14:08:30;5.32;;;1.75;;
65558;SDS011;52203;51.998;5.140;2023-08-20T14:10:56;4.68;;;1.77;;
65558;SDS011;52203;51.998;5.140;2023-08-20T14:13:21;5.90;;;1.40;;
65558;SDS011;52203;51.998;5.140;2023-08-20T14:15:47;5.82;;;1.38;;
65558;SDS011;52203;51.998;5.140;2023-08-20T14:18:12;5.18;;;1.58;;
65558;SDS011;52203;51.998;5.140;2023-08-20T14:20:38;3.25;;;1.45;;
65558;SDS011;52203;51.998;5.140;2023-08-20T14:23:04;5.63;;;1.70;;
65558;SDS011;52203;51.998;5.140;2023-08-20T14:25:29;4.90;;;1.20;;
65558;SDS011;52203;51.998;5.140;2023-08-20T14:27:55;9.27;;;1.80;;
65558;SDS011;52203;51.998;5.140;2023-08-20T14:30:20;4.03;;;1.30;;
65558;SDS011;52203;51.998;5.140;2023-08-20T14:32:46;4.40;;;1.77;;
65558;SDS011;52203;51.998;5.140;2023-08-20T14:35:12;5.18;;;1.58;;
65558;SDS011;52203;51.998;5.140;2023-08-20T14:37:38;4.75;;;1.20;;
65558;SDS011;52203;51.998;5.140;2023-08-20T14:40:03;6.70;;;1.50;;
65558;SDS011;52203;51.998;5.140;2023-08-20T14:42:33;4.85;;;1.25;;
65558;SDS011;52203;51.998;5.140;2023-08-20T14:44:58;7.35;;;1.35;;
65558;SDS011;52203;51.998;5.140;2023-08-20T14:47:25;3.60;;;1.20;;
65558;SDS011;52203;51.998;5.140;2023-08-20T14:49:50;4.82;;;1.25;;
65558;SDS011;52203;51.998;5.140;2023-08-20T14:52:17;3.80;;;1.42;;
65558;SDS011;52203;51.998;5.140;2023-08-20T14:54:43;4.00;;;1.20;;
65558;SDS011;52203;51.998;5.140;2023-08-20T14:57:08;3.40;;;1.20;;
65558;SDS011;52203;51.998;5.140;2023-08-20T14:59:34;2.78;;;1.02;;
65558;SDS011;52203;51.998;5.140;2023-08-20T15:01:59;3.80;;;1.30;;
65558;SDS011;52203;51.998;5.140;2023-08-20T15:04:25;5.50;;;1.27;;
65558;SDS011;52203;51.998;5.140;2023-08-20T15:06:51;6.30;;;1.63;;
65558;SDS011;52203;51.998;5.140;2023-08-20T15:09:16;4.35;;;1.27;;
65558;SDS011;52203;51.998;5.140;2023-08-20T15:11:42;4.45;;;1.17;;